sensor_id;sensor_type;location;lat;lon;timestamp;P1;durP1;ratioP1;P2;durP2;ratioP2
13244;SDS011;6689;53.400;12.486;2024-02-21T00:00:02;26.65;;;12.63;;
13244;SDS011;6689;53.400;12.486;2024-02-21T00:02:31;35.13;;;13.30;;
13244;SDS011;6689;53.400;12.486;2024-02-21T00:04:59;28.42;;;13.35;;
13244;SDS011;6689;53.400;12.486;2024-02-21T00:07:26;29.05;;;11.77;;
13244;SDS011;6689;53.400;12.486;2024-02-21T00:09:53;28.63;;;12.48;;
13244;SDS011;6689;53.400;12.486;2024-02-21T00:12:21;31.52;;;12.50;;
13244;SDS011;6689;53.400;12.486;2024-02-21T00:14:48;28.17;;;13.55;;
13244;SDS011;6689;53.400;12.486;2024-02-21T00:17:15;29.83;;;12.70;;
13244;SDS011;6689;53.400;12.486;2024-02-21T00:19:42;33.85;;;12.50;;
13244;SDS011;6689;53.400;12.486;2024-02-21T00:22:11;32.53;;;12.65;;
13244;SDS011;6689;53.400;12.486;2024-02-21T00:24:38;33.03;;;12.05;;
13244;SDS011;6689;53.400;12.486;2024-02-21T00:27:05;27.15;;;10.98;;
13244;SDS011;6689;53.400;12.486;2024-02-21T00:29:32;28.48;;;12.48;;
13244;SDS011;6689;53.400;12.486;2024-02-21T00:32:01;34.83;;;13.32;;
13244;SDS011;6689;53.400;12.486;2024-02-21T00:34:28;37.58;;;11.15;;
13244;SDS011;6689;53.400;12.486;2024-02-21T00:36:55;41.63;;;14.00;;
13244;SDS011;6689;53.400;12.486;2024-02-21T00:39:25;26.50;;;11.88;;
13244;SDS011;6689;53.400;12.486;2024-02-21T00:41:52;24.02;;;11.02;;
13244;SDS011;6689;53.400;12.486;2024-02-21T00:44:19;32.88;;;10.52;;
13244;SDS011;6689;53.400;12.486;2024-02-21T00:46:47;31.38;;;11.57;;
13244;SDS011;6689;53.400;12.486;2024-02-21T00:49:14;25.92;;;11.20;;
13244;SDS011;6689;53.400;12.486;2024-02-21T00:51:41;26.50;;;11.68;;
13244;SDS011;6689;53.400;12.486;2024-02-21T00:54:08;30.42;;;11.13;;
13244;SDS011;6689;53.400;12.486;2024-02-21T00:56:36;25.05;;;11.95;;
13244;SDS011;6689;53.400;12.486;2024-02-21T00:59:03;32.53;;;11.30;;
13244;SDS011;6689;53.400;12.486;2024-02-21T01:01:30;30.90;;;11.70;;
13244;SDS011;6689;53.400;12.486;2024-02-21T01:03:57;28.05;;;11.75;;
13244;SDS011;6689;53.400;12.486;2024-02-21T01:06:25;40.05;;;12.30;;
13244;SDS011;6689;53.400;12.486;2024-02-21T01:08:52;32.03;;;14.20;;
13244;SDS011;6689;53.400;12.486;2024-02-21T01:11:19;27.52;;;12.07;;
13244;SDS011;6689;53.400;12.486;2024-02-21T01:13:48;29.88;;;12.63;;
13244;SDS011;6689;53.400;12.486;2024-02-21T01:16:15;28.65;;;13.02;;
13244;SDS011;6689;53.400;12.486;2024-02-21T01:18:42;33.22;;;13.60;;
13244;SDS011;6689;53.400;12.486;2024-02-21T01:21:09;27.48;;;11.57;;
13244;SDS011;6689;53.400;12.486;2024-02-21T01:23:37;27.42;;;12.50;;
13244;SDS011;6689;53.400;12.486;2024-02-21T01:26:04;30.00;;;13.38;;
13244;SDS011;6689;53.400;12.486;2024-02-21T01:28:33;24.05;;;11.50;;
13244;SDS011;6689;53.400;12.486;2024-02-21T01:31:02;24.25;;;11.88;;
13244;SDS011;6689;53.400;12.486;2024-02-21T01:33:29;31.35;;;12.02;;
13244;SDS011;6689;53.400;12.486;2024-02-21T01:36:00;38.78;;;14.00;;
13244;SDS011;6689;53.400;12.486;2024-02-21T01:38:27;25.65;;;13.07;;
13244;SDS011;6689;53.400;12.486;2024-02-21T01:40:54;30.88;;;13.23;;
13244;SDS011;6689;53.400;12.486;2024-02-21T01:43:23;36.72;;;13.75;;
13244;SDS011;6689;53.400;12.486;2024-02-21T01:45:51;29.65;;;11.63;;
13244;SDS011;6689;53.400;12.486;2024-02-21T01:48:22;30.05;;;13.43;;
13244;SDS011;6689;53.400;12.486;2024-02-21T01:50:50;25.55;;;13.10;;
13244;SDS011;6689;53.400;12.486;2024-02-21T01:53:18;29.65;;;11.73;;
13244;SDS011;6689;53.400;12.486;2024-02-21T01:55:48;33.70;;;13.13;;
13244;SDS011;6689;53.400;12.486;2024-02-21T01:58:15;34.25;;;14.15;;
13244;SDS011;6689;53.400;12.486;2024-02-21T02:00:45;36.15;;;14.98;;
13244;SDS011;6689;53.400;12.486;2024-02-21T02:03:14;27.02;;;12.05;;
13244;SDS011;6689;53.400;12.486;2024-02-21T02:05:44;35.35;;;14.65;;
13244;SDS011;6689;53.400;12.486;2024-02-21T02:08:12;33.40;;;12.18;;
13244;SDS011;6689;53.400;12.486;2024-02-21T02:10:40;33.47;;;13.73;;
13244;SDS011;6689;53.400;12.486;2024-02-21T02:13:08;31.00;;;14.25;;
13244;SDS011;6689;53.400;12.486;2024-02-21T02:15:39;27.67;;;14.32;;
13244;SDS011;6689;53.400;12.486;2024-02-21T02:18:07;30.77;;;13.55;;
13244;SDS011;6689;53.400;12.486;2024-02-21T02:20:34;25.00;;;12.27;;
13244;SDS011;6689;53.400;12.486;2024-02-21T02:23:05;32.13;;;14.23;;
13244;SDS011;6689;53.400;12.486;2024-02-21T02:25:38;31.13;;;13.25;;
13244;SDS011;6689;53.400;12.486;2024-02-21T02:28:06;24.55;;;13.20;;
13244;SDS011;6689;53.400;12.486;2024-02-21T02:30:33;32.95;;;14.30;;
13244;SDS011;6689;53.400;12.486;2024-02-21T02:33:01;28.88;;;13.52;;
13244;SDS011;6689;53.400;12.486;2024-02-21T02:35:29;32.63;;;13.85;;
13244;SDS011;6689;53.400;12.486;2024-02-21T02:37:56;32.13;;;14.73;;
13244;SDS011;6689;53.400;12.486;2024-02-21T02:40:23;28.80;;;16.33;;
13244;SDS011;6689;53.400;12.486;2024-02-21T02:42:52;31.25;;;15.27;;
13244;SDS011;6689;53.400;12.486;2024-02-21T02:45:20;38.58;;;16.65;;
13244;SDS011;6689;53.400;12.486;2024-02-21T02:47:49;30.27;;;15.57;;
13244;SDS011;6689;53.400;12.486;2024-02-21T02:50:16;28.75;;;14.35;;
13244;SDS011;6689;53.400;12.486;2024-02-21T02:52:44;31.95;;;15.38;;
13244;SDS011;6689;53.400;12.486;2024-02-21T02:55:11;31.17;;;17.40;;
13244;SDS011;6689;53.400;12.486;2024-02-21T02:57:38;29.30;;;14.30;;
13244;SDS011;6689;53.400;12.486;2024-02-21T03:00:09;33.42;;;16.35;;
13244;SDS011;6689;53.400;12.486;2024-02-21T03:02:38;37.45;;;15.50;;
13244;SDS011;6689;53.400;12.486;2024-02-21T03:05:11;28.13;;;15.00;;
13244;SDS011;6689;53.400;12.486;2024-02-21T03:07:40;28.15;;;15.60;;
13244;SDS011;6689;53.400;12.486;2024-02-21T03:10:07;29.73;;;16.70;;
13244;SDS011;6689;53.400;12.486;2024-02-21T03:12:35;30.45;;;15.38;;
13244;SDS011;6689;53.400;12.486;2024-02-21T03:15:03;35.00;;;16.15;;
13244;SDS011;6689;53.400;12.486;2024-02-21T03:17:32;27.23;;;17.42;;
13244;SDS011;6689;53.400;12.486;2024-02-21T03:20:00;26.92;;;15.32;;
13244;SDS011;6689;53.400;12.486;2024-02-21T03:22:30;33.33;;;16.98;;
13244;SDS011;6689;53.400;12.486;2024-02-21T03:24:58;25.38;;;15.48;;
13244;SDS011;6689;53.400;12.486;2024-02-21T03:27:26;32.70;;;16.00;;
13244;SDS011;6689;53.400;12.486;2024-02-21T03:29:53;27.92;;;14.25;;
13244;SDS011;6689;53.400;12.486;2024-02-21T03:32:20;31.42;;;15.77;;
13244;SDS011;6689;53.400;12.486;2024-02-21T03:34:49;29.52;;;15.88;;
13244;SDS011;6689;53.400;12.486;2024-02-21T03:37:16;31.85;;;16.35;;
13244;SDS011;6689;53.400;12.486;2024-02-21T03:39:44;29.83;;;16.23;;
13244;SDS011;6689;53.400;12.486;2024-02-21T03:42:11;28.00;;;16.38;;
13244;SDS011;6689;53.400;12.486;2024-02-21T03:44:39;32.40;;;16.33;;
13244;SDS011;6689;53.400;12.486;2024-02-21T03:47:06;32.58;;;17.00;;
13244;SDS011;6689;53.400;12.486;2024-02-21T03:49:35;29.20;;;17.02;;
13244;SDS011;6689;53.400;12.486;2024-02-21T03:52:04;27.63;;;16.73;;
13244;SDS011;6689;53.400;12.486;2024-02-21T03:54:31;31.52;;;17.65;;
13244;SDS011;6689;53.400;12.486;2024-02-21T03:56:59;32.17;;;15.90;;
13244;SDS011;6689;53.400;12.486;2024-02-21T03:59:26;36.80;;;16.83;;
13244;SDS011;6689;53.400;12.486;2024-02-21T04:01:53;30.35;;;17.20;;
13244;SDS011;6689;53.400;12.486;2024-02-21T04:04:20;25.38;;;14.55;;
13244;SDS011;6689;53.400;12.486;2024-02-21T04:06:48;30.65;;;15.90;;
13244;SDS011;6689;53.400;12.486;2024-02-21T04:09:17;38.80;;;17.17;;
13244;SDS011;6689;53.400;12.486;2024-02-21T04:11:45;30.77;;;16.55;;
13244;SDS011;6689;53.400;12.486;2024-02-21T04:14:14;32.75;;;17.33;;
13244;SDS011;6689;53.400;12.486;2024-02-21T04:16:41;31.90;;;18.10;;
13244;SDS011;6689;53.400;12.486;2024-02-21T04:19:08;35.00;;;17.55;;
13244;SDS011;6689;53.400;12.486;2024-02-21T04:21:35;36.65;;;17.38;;
13244;SDS011;6689;53.400;12.486;2024-02-21T04:24:03;30.83;;;17.45;;
13244;SDS011;6689;53.400;12.486;2024-02-21T04:26:32;33.38;;;16.80;;
13244;SDS011;6689;53.400;12.486;2024-02-21T04:28:59;38.75;;;16.50;;
13244;SDS011;6689;53.400;12.486;2024-02-21T04:31:26;30.63;;;16.63;;
13244;SDS011;6689;53.400;12.486;2024-02-21T04:33:54;36.08;;;19.25;;
13244;SDS011;6689;53.400;12.486;2024-02-21T04:36:22;31.88;;;16.95;;
13244;SDS011;6689;53.400;12.486;2024-02-21T04:38:49;30.60;;;15.95;;
13244;SDS011;6689;53.400;12.486;2024-02-21T04:41:16;42.72;;;18.13;;
13244;SDS011;6689;53.400;12.486;2024-02-21T04:43:46;34.72;;;19.20;;
13244;SDS011;6689;53.400;12.486;2024-02-21T04:46:14;41.38;;;19.48;;
13244;SDS011;6689;53.400;12.486;2024-02-21T04:48:42;35.30;;;17.80;;
13244;SDS011;6689;53.400;12.486;2024-02-21T04:51:10;39.38;;;17.70;;
13244;SDS011;6689;53.400;12.486;2024-02-21T04:53:38;42.95;;;19.30;;
13244;SDS011;6689;53.400;12.486;2024-02-21T04:56:06;44.53;;;20.73;;
13244;SDS011;6689;53.400;12.486;2024-02-21T04:58:33;44.00;;;20.73;;
13244;SDS011;6689;53.400;12.486;2024-02-21T05:01:06;40.30;;;20.83;;
13244;SDS011;6689;53.400;12.486;2024-02-21T05:03:34;42.28;;;20.67;;
13244;SDS011;6689;53.400;12.486;2024-02-21T05:06:01;43.50;;;21.48;;
13244;SDS011;6689;53.400;12.486;2024-02-21T05:08:28;45.75;;;21.20;;
13244;SDS011;6689;53.400;12.486;2024-02-21T05:10:56;36.15;;;21.02;;
13244;SDS011;6689;53.400;12.486;2024-02-21T05:13:23;40.58;;;21.17;;
13244;SDS011;6689;53.400;12.486;2024-02-21T05:15:51;45.35;;;21.15;;
13244;SDS011;6689;53.400;12.486;2024-02-21T05:18:19;41.65;;;22.48;;
13244;SDS011;6689;53.400;12.486;2024-02-21T05:20:46;43.90;;;19.33;;
13244;SDS011;6689;53.400;12.486;2024-02-21T05:23:14;36.90;;;20.60;;
13244;SDS011;6689;53.400;12.486;2024-02-21T05:25:41;43.55;;;21.27;;
13244;SDS011;6689;53.400;12.486;2024-02-21T05:28:08;49.17;;;21.55;;
13244;SDS011;6689;53.400;12.486;2024-02-21T05:30:35;43.40;;;21.15;;
13244;SDS011;6689;53.400;12.486;2024-02-21T05:33:05;40.00;;;21.10;;
13244;SDS011;6689;53.400;12.486;2024-02-21T05:35:34;48.72;;;23.58;;
13244;SDS011;6689;53.400;12.486;2024-02-21T05:38:01;41.78;;;20.70;;
13244;SDS011;6689;53.400;12.486;2024-02-21T05:40:36;48.00;;;21.67;;
13244;SDS011;6689;53.400;12.486;2024-02-21T05:43:03;43.88;;;21.60;;
13244;SDS011;6689;53.400;12.486;2024-02-21T05:45:30;36.90;;;20.65;;
13244;SDS011;6689;53.400;12.486;2024-02-21T05:47:57;43.92;;;21.70;;
13244;SDS011;6689;53.400;12.486;2024-02-21T05:50:25;40.90;;;22.80;;
13244;SDS011;6689;53.400;12.486;2024-02-21T05:52:55;36.78;;;21.58;;
13244;SDS011;6689;53.400;12.486;2024-02-21T05:55:22;46.95;;;21.27;;
13244;SDS011;6689;53.400;12.486;2024-02-21T05:57:53;37.83;;;21.25;;
13244;SDS011;6689;53.400;12.486;2024-02-21T06:00:20;43.55;;;20.25;;
13244;SDS011;6689;53.400;12.486;2024-02-21T06:02:47;40.67;;;20.27;;
13244;SDS011;6689;53.400;12.486;2024-02-21T06:05:14;46.55;;;21.17;;
13244;SDS011;6689;53.400;12.486;2024-02-21T06:07:42;35.25;;;20.63;;
13244;SDS011;6689;53.400;12.486;2024-02-21T06:10:11;38.97;;;20.88;;
13244;SDS011;6689;53.400;12.486;2024-02-21T06:12:38;42.40;;;21.38;;
13244;SDS011;6689;53.400;12.486;2024-02-21T06:15:05;41.65;;;21.73;;
13244;SDS011;6689;53.400;12.486;2024-02-21T06:17:33;50.75;;;22.83;;
13244;SDS011;6689;53.400;12.486;2024-02-21T06:20:01;35.75;;;21.92;;
13244;SDS011;6689;53.400;12.486;2024-02-21T06:22:29;38.30;;;21.77;;
13244;SDS011;6689;53.400;12.486;2024-02-21T06:24:57;38.38;;;21.63;;
13244;SDS011;6689;53.400;12.486;2024-02-21T06:27:25;44.83;;;20.92;;
13244;SDS011;6689;53.400;12.486;2024-02-21T06:29:53;45.88;;;19.42;;
13244;SDS011;6689;53.400;12.486;2024-02-21T06:32:25;45.95;;;22.60;;
13244;SDS011;6689;53.400;12.486;2024-02-21T06:34:52;45.08;;;21.60;;
13244;SDS011;6689;53.400;12.486;2024-02-21T06:37:19;43.88;;;21.40;;
13244;SDS011;6689;53.400;12.486;2024-02-21T06:39:48;46.58;;;22.08;;
13244;SDS011;6689;53.400;12.486;2024-02-21T06:42:15;39.50;;;19.75;;
13244;SDS011;6689;53.400;12.486;2024-02-21T06:44:43;39.05;;;20.92;;
13244;SDS011;6689;53.400;12.486;2024-02-21T06:47:11;43.70;;;20.75;;
13244;SDS011;6689;53.400;12.486;2024-02-21T06:49:38;45.85;;;21.33;;
13244;SDS011;6689;53.400;12.486;2024-02-21T06:52:06;40.22;;;20.48;;
13244;SDS011;6689;53.400;12.486;2024-02-21T06:54:33;40.72;;;19.80;;
13244;SDS011;6689;53.400;12.486;2024-02-21T06:57:00;44.15;;;22.13;;
13244;SDS011;6689;53.400;12.486;2024-02-21T06:59:28;42.38;;;20.67;;
13244;SDS011;6689;53.400;12.486;2024-02-21T07:01:56;36.00;;;18.85;;
13244;SDS011;6689;53.400;12.486;2024-02-21T07:04:25;36.25;;;19.73;;
13244;SDS011;6689;53.400;12.486;2024-02-21T07:06:54;34.42;;;18.73;;
13244;SDS011;6689;53.400;12.486;2024-02-21T07:09:21;41.15;;;19.00;;
13244;SDS011;6689;53.400;12.486;2024-02-21T07:11:48;38.85;;;19.45;;
13244;SDS011;6689;53.400;12.486;2024-02-21T07:14:18;40.17;;;21.05;;
13244;SDS011;6689;53.400;12.486;2024-02-21T07:16:45;33.58;;;16.15;;
13244;SDS011;6689;53.400;12.486;2024-02-21T07:19:15;43.78;;;21.13;;
13244;SDS011;6689;53.400;12.486;2024-02-21T07:21:43;33.30;;;19.17;;
13244;SDS011;6689;53.400;12.486;2024-02-21T07:24:10;29.38;;;18.83;;
13244;SDS011;6689;53.400;12.486;2024-02-21T07:26:40;35.08;;;19.08;;
13244;SDS011;6689;53.400;12.486;2024-02-21T07:29:08;37.13;;;18.73;;
13244;SDS011;6689;53.400;12.486;2024-02-21T07:31:38;28.67;;;17.38;;
13244;SDS011;6689;53.400;12.486;2024-02-21T07:34:06;33.63;;;18.77;;
13244;SDS011;6689;53.400;12.486;2024-02-21T07:36:35;30.77;;;18.15;;
13244;SDS011;6689;53.400;12.486;2024-02-21T07:39:04;32.92;;;17.88;;
13244;SDS011;6689;53.400;12.486;2024-02-21T07:41:31;32.90;;;18.95;;
13244;SDS011;6689;53.400;12.486;2024-02-21T07:43:59;30.83;;;17.52;;
13244;SDS011;6689;53.400;12.486;2024-02-21T07:46:28;30.30;;;18.38;;
13244;SDS011;6689;53.400;12.486;2024-02-21T07:48:55;31.38;;;19.17;;
13244;SDS011;6689;53.400;12.486;2024-02-21T07:51:23;40.15;;;18.58;;
13244;SDS011;6689;53.400;12.486;2024-02-21T07:53:55;32.08;;;17.45;;
13244;SDS011;6689;53.400;12.486;2024-02-21T07:56:23;29.95;;;17.45;;
13244;SDS011;6689;53.400;12.486;2024-02-21T07:58:50;29.05;;;17.13;;
13244;SDS011;6689;53.400;12.486;2024-02-21T08:01:18;28.02;;;17.45;;
13244;SDS011;6689;53.400;12.486;2024-02-21T08:03:46;29.35;;;17.65;;
13244;SDS011;6689;53.400;12.486;2024-02-21T08:06:15;33.03;;;16.98;;
13244;SDS011;6689;53.400;12.486;2024-02-21T08:08:42;24.20;;;14.82;;
13244;SDS011;6689;53.400;12.486;2024-02-21T08:11:10;28.52;;;17.73;;
13244;SDS011;6689;53.400;12.486;2024-02-21T08:13:37;27.17;;;15.07;;
13244;SDS011;6689;53.400;12.486;2024-02-21T08:16:05;23.58;;;15.18;;
13244;SDS011;6689;53.400;12.486;2024-02-21T08:18:33;29.15;;;17.13;;
13244;SDS011;6689;53.400;12.486;2024-02-21T08:21:01;23.33;;;14.27;;
13244;SDS011;6689;53.400;12.486;2024-02-21T08:23:30;23.38;;;14.70;;
13244;SDS011;6689;53.400;12.486;2024-02-21T08:25:57;27.75;;;15.65;;
13244;SDS011;6689;53.400;12.486;2024-02-21T08:28:26;25.63;;;14.18;;
13244;SDS011;6689;53.400;12.486;2024-02-21T08:30:53;24.38;;;14.43;;
13244;SDS011;6689;53.400;12.486;2024-02-21T08:33:20;23.63;;;14.20;;
13244;SDS011;6689;53.400;12.486;2024-02-21T08:35:50;30.10;;;14.57;;
13244;SDS011;6689;53.400;12.486;2024-02-21T08:38:18;28.65;;;15.48;;
13244;SDS011;6689;53.400;12.486;2024-02-21T08:40:45;18.08;;;11.93;;
13244;SDS011;6689;53.400;12.486;2024-02-21T08:43:12;25.10;;;13.75;;
13244;SDS011;6689;53.400;12.486;2024-02-21T08:45:41;18.60;;;13.82;;
13244;SDS011;6689;53.400;12.486;2024-02-21T08:48:08;20.77;;;13.43;;
13244;SDS011;6689;53.400;12.486;2024-02-21T08:50:35;21.88;;;14.10;;
13244;SDS011;6689;53.400;12.486;2024-02-21T08:53:03;19.80;;;13.18;;
13244;SDS011;6689;53.400;12.486;2024-02-21T08:55:30;18.70;;;12.70;;
13244;SDS011;6689;53.400;12.486;2024-02-21T08:57:57;18.58;;;12.25;;
13244;SDS011;6689;53.400;12.486;2024-02-21T09:00:25;21.25;;;12.18;;
13244;SDS011;6689;53.400;12.486;2024-02-21T09:02:54;19.58;;;13.20;;
13244;SDS011;6689;53.400;12.486;2024-02-21T09:05:22;18.55;;;11.60;;
13244;SDS011;6689;53.400;12.486;2024-02-21T09:07:50;15.85;;;11.45;;
13244;SDS011;6689;53.400;12.486;2024-02-21T09:10:17;16.05;;;10.88;;
13244;SDS011;6689;53.400;12.486;2024-02-21T09:12:44;17.63;;;11.52;;
13244;SDS011;6689;53.400;12.486;2024-02-21T09:15:12;17.35;;;12.05;;
13244;SDS011;6689;53.400;12.486;2024-02-21T09:17:39;19.92;;;11.52;;
13244;SDS011;6689;53.400;12.486;2024-02-21T09:20:09;17.98;;;12.20;;
13244;SDS011;6689;53.400;12.486;2024-02-21T09:22:37;17.55;;;11.68;;
13244;SDS011;6689;53.400;12.486;2024-02-21T09:25:06;14.63;;;10.50;;
13244;SDS011;6689;53.400;12.486;2024-02-21T09:27:37;16.65;;;11.60;;
13244;SDS011;6689;53.400;12.486;2024-02-21T09:30:05;16.92;;;12.18;;
13244;SDS011;6689;53.400;12.486;2024-02-21T09:32:33;15.73;;;11.80;;
13244;SDS011;6689;53.400;12.486;2024-02-21T09:35:01;15.38;;;11.00;;
13244;SDS011;6689;53.400;12.486;2024-02-21T09:37:31;17.88;;;11.07;;
13244;SDS011;6689;53.400;12.486;2024-02-21T09:39:59;19.15;;;11.10;;
13244;SDS011;6689;53.400;12.486;2024-02-21T09:42:29;18.42;;;10.77;;
13244;SDS011;6689;53.400;12.486;2024-02-21T09:45:03;15.65;;;10.00;;
13244;SDS011;6689;53.400;12.486;2024-02-21T09:47:40;18.92;;;10.63;;
13244;SDS011;6689;53.400;12.486;2024-02-21T09:50:17;16.02;;;10.05;;
13244;SDS011;6689;53.400;12.486;2024-02-21T09:52:48;15.82;;;9.60;;
13244;SDS011;6689;53.400;12.486;2024-02-21T09:55:16;13.65;;;9.55;;
13244;SDS011;6689;53.400;12.486;2024-02-21T09:57:47;14.90;;;10.93;;
13244;SDS011;6689;53.400;12.486;2024-02-21T10:00:18;17.30;;;10.60;;
13244;SDS011;6689;53.400;12.486;2024-02-21T10:02:47;17.80;;;10.27;;
13244;SDS011;6689;53.400;12.486;2024-02-21T10:05:17;13.05;;;10.02;;
13244;SDS011;6689;53.400;12.486;2024-02-21T10:07:45;15.77;;;10.32;;
13244;SDS011;6689;53.400;12.486;2024-02-21T10:10:14;14.48;;;9.80;;
13244;SDS011;6689;53.400;12.486;2024-02-21T10:12:48;14.05;;;10.43;;
13244;SDS011;6689;53.400;12.486;2024-02-21T10:15:19;14.73;;;10.57;;
13244;SDS011;6689;53.400;12.486;2024-02-21T10:17:47;14.73;;;10.07;;
13244;SDS011;6689;53.400;12.486;2024-02-21T10:20:15;13.38;;;9.70;;
13244;SDS011;6689;53.400;12.486;2024-02-21T10:22:42;15.77;;;9.25;;
13244;SDS011;6689;53.400;12.486;2024-02-21T10:25:12;14.88;;;10.73;;
13244;SDS011;6689;53.400;12.486;2024-02-21T10:27:39;10.80;;;9.25;;
13244;SDS011;6689;53.400;12.486;2024-02-21T10:30:08;11.98;;;9.27;;
13244;SDS011;6689;53.400;12.486;2024-02-21T10:32:48;15.88;;;10.82;;
13244;SDS011;6689;53.400;12.486;2024-02-21T10:35:25;13.77;;;10.50;;
13244;SDS011;6689;53.400;12.486;2024-02-21T10:37:53;13.82;;;10.43;;
13244;SDS011;6689;53.400;12.486;2024-02-21T10:40:23;15.07;;;9.95;;
13244;SDS011;6689;53.400;12.486;2024-02-21T10:42:53;12.23;;;9.20;;
13244;SDS011;6689;53.400;12.486;2024-02-21T10:47:56;15.52;;;9.35;;
13244;SDS011;6689;53.400;12.486;2024-02-21T10:50:28;13.57;;;9.30;;
13244;SDS011;6689;53.400;12.486;2024-02-21T10:53:00;13.73;;;9.23;;
13244;SDS011;6689;53.400;12.486;2024-02-21T10:55:38;17.33;;;10.48;;
13244;SDS011;6689;53.400;12.486;2024-02-21T10:58:12;15.43;;;9.60;;
13244;SDS011;6689;53.400;12.486;2024-02-21T11:00:43;12.13;;;8.98;;
13244;SDS011;6689;53.400;12.486;2024-02-21T11:03:10;11.05;;;8.48;;
13244;SDS011;6689;53.400;12.486;2024-02-21T11:05:38;15.20;;;9.38;;
13244;SDS011;6689;53.400;12.486;2024-02-21T11:08:10;11.98;;;9.10;;
13244;SDS011;6689;53.400;12.486;2024-02-21T11:10:39;11.73;;;8.32;;
13244;SDS011;6689;53.400;12.486;2024-02-21T11:13:06;15.60;;;9.85;;
13244;SDS011;6689;53.400;12.486;2024-02-21T11:15:34;15.60;;;9.70;;
13244;SDS011;6689;53.400;12.486;2024-02-21T11:18:01;13.25;;;9.65;;
13244;SDS011;6689;53.400;12.486;2024-02-21T11:20:32;15.77;;;8.95;;
13244;SDS011;6689;53.400;12.486;2024-02-21T11:23:01;13.25;;;9.65;;
13244;SDS011;6689;53.400;12.486;2024-02-21T11:25:28;12.60;;;8.55;;
13244;SDS011;6689;53.400;12.486;2024-02-21T11:28:02;14.00;;;9.10;;
13244;SDS011;6689;53.400;12.486;2024-02-21T11:30:30;13.07;;;8.73;;
13244;SDS011;6689;53.400;12.486;2024-02-21T11:32:59;15.40;;;9.10;;
13244;SDS011;6689;53.400;12.486;2024-02-21T11:35:30;13.80;;;9.40;;
13244;SDS011;6689;53.400;12.486;2024-02-21T11:38:07;12.75;;;9.07;;
13244;SDS011;6689;53.400;12.486;2024-02-21T11:40:38;13.48;;;9.40;;
13244;SDS011;6689;53.400;12.486;2024-02-21T11:43:08;14.65;;;7.30;;
13244;SDS011;6689;53.400;12.486;2024-02-21T11:45:35;11.70;;;8.32;;
13244;SDS011;6689;53.400;12.486;2024-02-21T11:48:05;12.95;;;9.25;;
13244;SDS011;6689;53.400;12.486;2024-02-21T11:50:34;10.70;;;8.48;;
13244;SDS011;6689;53.400;12.486;2024-02-21T11:53:02;13.38;;;8.68;;
13244;SDS011;6689;53.400;12.486;2024-02-21T11:55:29;12.13;;;8.32;;
13244;SDS011;6689;53.400;12.486;2024-02-21T11:57:56;10.02;;;7.65;;
13244;SDS011;6689;53.400;12.486;2024-02-21T12:00:26;9.93;;;8.18;;
13244;SDS011;6689;53.400;12.486;2024-02-21T12:02:53;10.90;;;8.18;;
13244;SDS011;6689;53.400;12.486;2024-02-21T12:05:27;10.43;;;7.53;;
13244;SDS011;6689;53.400;12.486;2024-02-21T12:07:55;13.23;;;8.55;;
13244;SDS011;6689;53.400;12.486;2024-02-21T12:10:23;11.60;;;8.68;;
13244;SDS011;6689;53.400;12.486;2024-02-21T12:12:52;11.30;;;7.88;;
13244;SDS011;6689;53.400;12.486;2024-02-21T12:15:32;11.65;;;7.32;;
13244;SDS011;6689;53.400;12.486;2024-02-21T12:18:00;10.57;;;7.75;;
13244;SDS011;6689;53.400;12.486;2024-02-21T12:20:27;10.57;;;6.30;;
13244;SDS011;6689;53.400;12.486;2024-02-21T12:22:56;11.43;;;7.63;;
13244;SDS011;6689;53.400;12.486;2024-02-21T12:25:26;9.20;;;7.03;;
13244;SDS011;6689;53.400;12.486;2024-02-21T12:27:54;13.18;;;7.80;;
13244;SDS011;6689;53.400;12.486;2024-02-21T12:30:22;9.15;;;6.93;;
13244;SDS011;6689;53.400;12.486;2024-02-21T12:32:50;9.30;;;6.43;;
13244;SDS011;6689;53.400;12.486;2024-02-21T12:35:18;11.10;;;7.22;;
13244;SDS011;6689;53.400;12.486;2024-02-21T12:37:45;8.82;;;6.38;;
13244;SDS011;6689;53.400;12.486;2024-02-21T12:40:12;8.50;;;6.18;;
13244;SDS011;6689;53.400;12.486;2024-02-21T12:42:39;7.88;;;6.35;;
13244;SDS011;6689;53.400;12.486;2024-02-21T12:45:07;9.80;;;6.68;;
13244;SDS011;6689;53.400;12.486;2024-02-21T12:47:35;13.00;;;7.80;;
13244;SDS011;6689;53.400;12.486;2024-02-21T12:50:04;8.43;;;7.20;;
13244;SDS011;6689;53.400;12.486;2024-02-21T12:52:32;8.55;;;6.95;;
13244;SDS011;6689;53.400;12.486;2024-02-21T12:54:59;8.85;;;7.75;;
13244;SDS011;6689;53.400;12.486;2024-02-21T12:57:26;10.90;;;8.93;;
13244;SDS011;6689;53.400;12.486;2024-02-21T12:59:55;12.13;;;9.43;;
13244;SDS011;6689;53.400;12.486;2024-02-21T13:02:22;11.57;;;9.43;;
13244;SDS011;6689;53.400;12.486;2024-02-21T13:04:49;16.17;;;10.23;;
13244;SDS011;6689;53.400;12.486;2024-02-21T13:07:18;14.25;;;10.43;;
13244;SDS011;6689;53.400;12.486;2024-02-21T13:09:45;12.88;;;9.95;;
13244;SDS011;6689;53.400;12.486;2024-02-21T13:12:13;11.70;;;9.25;;
13244;SDS011;6689;53.400;12.486;2024-02-21T13:14:41;13.00;;;9.30;;
13244;SDS011;6689;53.400;12.486;2024-02-21T13:17:09;14.35;;;9.85;;
13244;SDS011;6689;53.400;12.486;2024-02-21T13:19:36;13.00;;;9.73;;
13244;SDS011;6689;53.400;12.486;2024-02-21T13:22:04;14.73;;;10.35;;
13244;SDS011;6689;53.400;12.486;2024-02-21T13:24:33;18.52;;;11.38;;
13244;SDS011;6689;53.400;12.486;2024-02-21T13:27:00;16.80;;;12.10;;
13244;SDS011;6689;53.400;12.486;2024-02-21T13:29:28;18.63;;;11.13;;
13244;SDS011;6689;53.400;12.486;2024-02-21T13:31:55;17.00;;;11.35;;
13244;SDS011;6689;53.400;12.486;2024-02-21T13:34:23;15.90;;;12.10;;
13244;SDS011;6689;53.400;12.486;2024-02-21T13:36:51;17.52;;;12.05;;
13244;SDS011;6689;53.400;12.486;2024-02-21T13:39:20;20.83;;;12.45;;
13244;SDS011;6689;53.400;12.486;2024-02-21T13:41:50;18.08;;;13.10;;
13244;SDS011;6689;53.400;12.486;2024-02-21T13:44:17;19.77;;;12.48;;
13244;SDS011;6689;53.400;12.486;2024-02-21T13:46:44;19.00;;;12.00;;
13244;SDS011;6689;53.400;12.486;2024-02-21T13:49:12;15.43;;;11.35;;
13244;SDS011;6689;53.400;12.486;2024-02-21T13:51:40;15.88;;;11.77;;
13244;SDS011;6689;53.400;12.486;2024-02-21T13:54:10;20.00;;;12.50;;
13244;SDS011;6689;53.400;12.486;2024-02-21T13:56:39;16.88;;;11.38;;
13244;SDS011;6689;53.400;12.486;2024-02-21T13:59:08;19.20;;;12.43;;
13244;SDS011;6689;53.400;12.486;2024-02-21T14:01:35;22.25;;;11.52;;
13244;SDS011;6689;53.400;12.486;2024-02-21T14:04:02;17.45;;;12.00;;
13244;SDS011;6689;53.400;12.486;2024-02-21T14:06:30;21.45;;;12.77;;
13244;SDS011;6689;53.400;12.486;2024-02-21T14:08:57;24.90;;;12.02;;
13244;SDS011;6689;53.400;12.486;2024-02-21T14:11:25;19.38;;;12.25;;
13244;SDS011;6689;53.400;12.486;2024-02-21T14:13:55;19.77;;;11.75;;
13244;SDS011;6689;53.400;12.486;2024-02-21T14:16:24;19.88;;;12.60;;
13244;SDS011;6689;53.400;12.486;2024-02-21T14:18:51;18.30;;;13.02;;
13244;SDS011;6689;53.400;12.486;2024-02-21T14:21:19;17.75;;;11.82;;
13244;SDS011;6689;53.400;12.486;2024-02-21T14:23:46;16.23;;;12.02;;
13244;SDS011;6689;53.400;12.486;2024-02-21T14:26:13;17.20;;;12.60;;
13244;SDS011;6689;53.400;12.486;2024-02-21T14:28:41;21.88;;;12.23;;
13244;SDS011;6689;53.400;12.486;2024-02-21T14:31:08;17.60;;;11.65;;